Time,TemperatureF,DewpointF,PressureIn,WindDirection,WindDirectionDegrees,WindSpeedMPH,WindSpeedGustMPH,Humidity,HourlyPrecipIn,Conditions,Clouds,dailyrainin,SoftwareType,DateUTC
2013-01-31 00:00:00,62.0,62.0,29.69,SSW,199,19.0,20.0,100,0.00,,---,0.00,VWS V14.00,2013-01-31 05:00:00,
2013-01-31 00:03:00,62.0,62.0,29.69,SSW,192,17.0,26.0,100,0.00,,---,0.00,VWS V14.00,2013-01-31 05:03:00,
2013-01-31 00:08:00,62.0,62.0,29.69,South,177,17.0,27.0,100,0.00,,---,0.00,VWS V14.00,2013-01-31 05:08:00,
2013-01-31 00:13:00,61.9,61.9,29.69,SSW,196,20.0,27.0,100,0.00,,---,0.00,VWS V14.00,2013-01-31 05:13:00,
2013-01-31 00:18:00,62.0,62.0,29.68,South,189,18.0,27.0,100,0.00,,---,0.00,VWS V14.00,2013-01-31 05:18:00,
2013-01-31 00:23:00,62.0,62.0,29.68,SSW,195,15.0,27.0,100,0.00,,---,0.00,VWS V14.00,2013-01-31 05:23:00,
2013-01-31 00:28:00,62.0,62.0,29.67,South,185,11.0,28.0,100,0.00,,---,0.00,VWS V14.00,2013-01-31 05:28:00,
2013-01-31 00:33:00,62.0,62.0,29.66,South,186,11.0,22.0,100,0.00,,---,0.00,VWS V14.00,2013-01-31 05:33:00,
2013-01-31 00:38:00,62.1,62.1,29.66,South,186,14.0,23.0,100,0.00,,---,0.00,VWS V14.00,2013-01-31 05:38:00,
2013-01-31 00:43:00,62.2,62.2,29.66,South,189,12.0,28.0,100,0.00,,---,0.00,VWS V14.00,2013-01-31 05:43:00,
2013-01-31 00:48:00,62.2,62.2,29.65,South,185,17.0,28.0,100,0.00,,---,0.00,VWS V14.00,2013-01-31 05:48:00,
2013-01-31 00:53:00,62.2,62.2,29.64,South,190,15.0,29.0,100,0.00,,---,0.00,VWS V14.00,2013-01-31 05:53:00,
2013-01-31 00:58:00,62.3,62.3,29.64,South,180,17.0,31.0,100,0.00,,---,0.00,VWS V14.00,2013-01-31 05:58:00,
2013-01-31 01:03:00,62.4,62.4,29.63,South,191,24.0,24.0,100,0.00,,---,0.00,VWS V14.00,2013-01-31 06:03:00,
2013-01-31 01:08:00,62.5,62.5,29.63,South,184,18.0,26.0,100,0.00,,---,0.00,VWS V14.00,2013-01-31 06:08:00,
2013-01-31 01:13:00,62.6,62.6,29.62,SSW,196,24.0,26.0,100,0.00,,---,0.00,VWS V14.00,2013-01-31 06:13:00,
2013-01-31 01:18:00,62.6,62.6,29.62,South,188,14.0,26.0,100,0.00,,---,0.00,VWS V14.00,2013-01-31 06:18:00,
2013-01-31 01:23:00,62.7,62.7,29.62,South,181,26.0,26.0,100,0.00,,---,0.00,VWS V14.00,2013-01-31 06:23:00,
2013-01-31 01:28:00,62.8,62.8,29.62,SSW,192,14.0,26.0,100,0.00,,---,0.00,VWS V14.00,2013-01-31 06:28:00,
2013-01-31 01:33:00,62.8,62.8,29.61,South,191,16.0,25.0,100,0.00,,---,0.00,VWS V14.00,2013-01-31 06:33:00,
2013-01-31 01:38:00,62.8,62.8,29.61,SSW,194,15.0,26.0,100,0.00,,---,0.00,VWS V14.00,2013-01-31 06:38:00,
2013-01-31 01:43:00,62.8,62.8,29.61,SSW,196,21.0,32.0,100,0.00,,---,0.00,VWS V14.00,2013-01-31 06:43:00,
2013-01-31 01:48:00,62.8,62.8,29.60,SSW,192,18.0,32.0,100,0.00,,---,0.00,VWS V14.00,2013-01-31 06:48:00,
2013-01-31 01:53:00,62.8,62.8,29.60,South,191,20.0,32.0,100,0.00,,---,0.00,VWS V14.00,2013-01-31 06:53:00,
2013-01-31 01:58:00,62.8,62.8,29.59,South,191,21.0,32.0,100,0.00,,---,0.00,VWS V14.00,2013-01-31 06:58:00,
2013-01-31 02:03:00,62.8,62.8,29.59,South,189,18.0,31.0,100,0.00,,---,0.00,VWS V14.00,2013-01-31 07:03:00,
2013-01-31 02:08:00,62.8,62.8,29.59,South,188,16.0,31.0,100,0.00,,---,0.00,VWS V14.00,2013-01-31 07:08:00,
2013-01-31 02:13:00,62.9,62.9,29.58,SSW,192,15.0,31.0,100,0.00,,---,0.00,VWS V14.00,2013-01-31 07:13:00,
2013-01-31 02:18:00,62.9,62.9,29.58,SSW,201,16.0,31.0,100,0.00,,---,0.00,VWS V14.00,2013-01-31 07:18:00,
2013-01-31 02:23:00,62.9,62.9,29.58,South,191,15.0,31.0,100,0.00,,---,0.00,VWS V14.00,2013-01-31 07:23:00,
2013-01-31 02:28:00,62.9,62.9,29.58,SSW,193,13.0,31.0,100,0.00,,---,0.00,VWS V14.00,2013-01-31 07:28:00,
2013-01-31 02:33:00,62.9,62.9,29.58,SSW,200,18.0,27.0,100,0.00,,---,0.00,VWS V14.00,2013-01-31 07:33:00,
2013-01-31 02:38:00,62.9,62.9,29.57,SSW,204,23.0,32.0,100,0.00,,---,0.00,VWS V14.00,2013-01-31 07:38:00,
2013-01-31 02:43:00,62.9,62.9,29.57,SSW,197,17.0,34.0,100,0.00,,---,0.00,VWS V14.00,2013-01-31 07:43:00,
2013-01-31 02:48:00,63.0,63.0,29.57,SSW,201,19.0,34.0,100,0.00,,---,0.00,VWS V14.00,2013-01-31 07:48:00,
2013-01-31 02:53:00,63.0,63.0,29.57,SSW,200,39.0,39.0,100,0.00,,---,0.00,VWS V14.00,2013-01-31 07:53:00,
2013-01-31 02:58:00,63.0,63.0,29.57,SSW,203,21.0,39.0,100,0.01,,---,0.01,VWS V14.00,2013-01-31 07:58:00,
2013-01-31 03:03:00,63.1,63.1,29.57,SW,219,23.0,29.0,100,0.03,,---,0.04,VWS V14.00,2013-01-31 08:03:00,
2013-01-31 03:08:00,62.9,62.9,29.61,WSW,252,37.0,44.0,100,0.12,,---,0.13,VWS V14.00,2013-01-31 08:08:00,
2013-01-31 03:13:00,61.4,61.4,29.62,West,262,28.0,44.0,100,0.12,,---,0.14,VWS V14.00,2013-01-31 08:13:00,
2013-01-31 03:18:00,60.3,60.3,29.63,WSW,258,21.0,44.0,100,0.12,,---,0.15,VWS V14.00,2013-01-31 08:18:00,
2013-01-31 03:23:00,59.8,59.8,29.63,West,261,24.0,44.0,100,0.11,,---,0.15,VWS V14.00,2013-01-31 08:23:00,
2013-01-31 03:28:00,59.3,59.3,29.63,West,260,24.0,44.0,100,0.10,,---,0.15,VWS V14.00,2013-01-31 08:28:00,
2013-01-31 03:33:00,58.9,58.9,29.63,West,264,18.0,27.0,100,0.11,,---,0.16,VWS V14.00,2013-01-31 08:33:00,
2013-01-31 03:38:00,58.5,58.5,29.62,WSW,257,13.0,27.0,100,0.10,,---,0.16,VWS V14.00,2013-01-31 08:38:00,
2013-01-31 03:43:00,58.1,58.1,29.63,WSW,253,21.0,27.0,100,0.09,,---,0.16,VWS V14.00,2013-01-31 08:43:00,
2013-01-31 03:48:00,57.7,57.7,29.64,WSW,255,20.0,28.0,100,0.08,,---,0.16,VWS V14.00,2013-01-31 08:48:00,
2013-01-31 03:53:00,57.4,57.4,29.65,WSW,255,17.0,29.0,100,0.08,,---,0.17,VWS V14.00,2013-01-31 08:53:00,
2013-01-31 03:58:00,57.1,57.1,29.65,WSW,254,13.0,29.0,100,0.08,,---,0.17,VWS V14.00,2013-01-31 08:58:00,
2013-01-31 04:03:00,56.7,56.7,29.64,WSW,257,19.0,28.0,100,0.07,,---,0.17,VWS V14.00,2013-01-31 09:03:00,
2013-01-31 04:08:00,56.5,56.5,29.64,WSW,250,28.0,33.0,100,0.07,,---,0.17,VWS V14.00,2013-01-31 09:08:00,
2013-01-31 04:13:00,56.2,56.2,29.65,WSW,250,22.0,33.0,100,0.06,,---,0.17,VWS V14.00,2013-01-31 09:13:00,
2013-01-31 04:18:00,56.1,56.1,29.64,WSW,253,21.0,33.0,100,0.06,,---,0.17,VWS V14.00,2013-01-31 09:18:00,
2013-01-31 04:23:00,55.9,55.9,29.64,WSW,246,17.0,33.0,100,0.05,,---,0.17,VWS V14.00,2013-01-31 09:23:00,
2013-01-31 04:28:00,55.6,55.6,29.64,WSW,243,20.0,33.0,100,0.05,,---,0.17,VWS V14.00,2013-01-31 09:28:00,
2013-01-31 04:33:00,55.3,55.3,29.65,WSW,243,28.0,34.0,100,0.04,,---,0.17,VWS V14.00,2013-01-31 09:33:00,
2013-01-31 04:38:00,55.1,55.1,29.65,WSW,243,24.0,34.0,100,0.04,,---,0.17,VWS V14.00,2013-01-31 09:38:00,
2013-01-31 04:43:00,54.9,54.9,29.65,SW,236,18.0,34.0,100,0.04,,---,0.17,VWS V14.00,2013-01-31 09:43:00,
2013-01-31 04:48:00,54.7,54.7,29.66,WSW,242,25.0,34.0,100,0.03,,---,0.17,VWS V14.00,2013-01-31 09:48:00,
2013-01-31 04:53:00,54.6,54.6,29.66,WSW,251,20.0,34.0,100,0.03,,---,0.17,VWS V14.00,2013-01-31 09:53:00,
2013-01-31 04:58:00,54.4,54.4,29.66,WSW,252,22.0,34.0,100,0.03,,---,0.17,VWS V14.00,2013-01-31 09:58:00,
2013-01-31 05:03:00,54.3,54.3,29.66,WSW,248,19.0,30.0,100,0.03,,---,0.17,VWS V14.00,2013-01-31 10:03:00,
2013-01-31 05:08:00,54.1,54.1,29.67,WSW,245,24.0,32.0,100,0.02,,---,0.17,VWS V14.00,2013-01-31 10:08:00,
2013-01-31 05:13:00,53.9,53.9,29.67,SW,234,21.0,34.0,100,0.02,,---,0.17,VWS V14.00,2013-01-31 10:13:00,
2013-01-31 05:18:00,53.5,53.5,29.68,WSW,244,22.0,34.0,100,0.02,,---,0.17,VWS V14.00,2013-01-31 10:18:00,
2013-01-31 05:23:00,53.4,53.4,29.67,WSW,244,29.0,34.0,100,0.02,,---,0.17,VWS V14.00,2013-01-31 10:23:00,
2013-01-31 05:28:00,53.3,53.3,29.67,WSW,253,24.0,34.0,100,0.02,,---,0.17,VWS V14.00,2013-01-31 10:28:00,
2013-01-31 05:33:00,53.2,53.2,29.68,WSW,248,24.0,30.0,100,0.02,,---,0.17,VWS V14.00,2013-01-31 10:33:00,
2013-01-31 05:38:00,53.1,53.1,29.68,WSW,248,22.0,30.0,100,0.01,,---,0.17,VWS V14.00,2013-01-31 10:38:00,
2013-01-31 05:43:00,53.0,53.0,29.68,WSW,249,16.0,31.0,100,0.01,,---,0.17,VWS V14.00,2013-01-31 10:43:00,
2013-01-31 05:48:00,52.8,52.8,29.69,WSW,253,22.0,31.0,100,0.01,,---,0.17,VWS V14.00,2013-01-31 10:48:00,
2013-01-31 05:53:00,52.7,52.7,29.70,WSW,249,18.0,31.0,100,0.01,,---,0.17,VWS V14.00,2013-01-31 10:53:00,
2013-01-31 05:58:00,52.6,52.6,29.70,West,260,19.0,31.0,100,0.01,,---,0.17,VWS V14.00,2013-01-31 10:58:00,
2013-01-31 06:03:00,52.6,52.6,29.70,WSW,257,21.0,29.0,100,0.01,,---,0.17,VWS V14.00,2013-01-31 11:03:00,
2013-01-31 06:08:00,52.5,52.5,29.71,West,260,22.0,29.0,100,0.01,,---,0.17,VWS V14.00,2013-01-31 11:08:00,
2013-01-31 06:13:00,52.4,52.4,29.72,WSW,249,19.0,33.0,100,0.01,,---,0.17,VWS V14.00,2013-01-31 11:13:00,
2013-01-31 06:18:00,52.3,52.3,29.72,WSW,253,17.0,33.0,100,0.01,,---,0.17,VWS V14.00,2013-01-31 11:18:00,
2013-01-31 06:23:00,52.2,52.2,29.72,West,260,22.0,33.0,100,0.01,,---,0.17,VWS V14.00,2013-01-31 11:23:00,
2013-01-31 06:28:00,52.1,52.1,29.73,West,262,17.0,33.0,100,0.01,,---,0.17,VWS V14.00,2013-01-31 11:28:00,
2013-01-31 06:33:00,52.0,52.0,29.74,West,263,14.0,26.0,100,0.01,,---,0.17,VWS V14.00,2013-01-31 11:33:00,
2013-01-31 06:38:00,51.9,51.9,29.74,WSW,256,26.0,29.0,100,0.01,,---,0.17,VWS V14.00,2013-01-31 11:38:00,
2013-01-31 06:43:00,51.8,51.8,29.74,WSW,253,27.0,29.0,100,0.00,,---,0.17,VWS V14.00,2013-01-31 11:43:00,
2013-01-31 06:48:00,51.8,51.8,29.75,WSW,254,20.0,36.0,100,0.00,,---,0.17,VWS V14.00,2013-01-31 11:48:00,
2013-01-31 06:53:00,51.8,51.8,29.75,WSW,256,22.0,36.0,100,0.00,,---,0.17,VWS V14.00,2013-01-31 11:53:00,
2013-01-31 06:58:00,51.7,51.7,29.76,WSW,255,21.0,36.0,100,0.00,,---,0.17,VWS V14.00,2013-01-31 11:58:00,
2013-01-31 07:03:00,51.7,51.7,29.76,WSW,254,21.0,29.0,100,0.00,,---,0.17,VWS V14.00,2013-01-31 12:03:00,
2013-01-31 07:08:00,51.6,51.6,29.76,West,262,14.0,33.0,100,0.00,,---,0.17,VWS V14.00,2013-01-31 12:08:00,
2013-01-31 07:13:00,51.7,51.7,29.76,WSW,255,20.0,33.0,100,0.00,,---,0.17,VWS V14.00,2013-01-31 12:13:00,
2013-01-31 07:18:00,51.6,51.6,29.77,West,260,16.0,33.0,100,0.00,,---,0.17,VWS V14.00,2013-01-31 12:18:00,
2013-01-31 07:23:00,51.6,51.6,29.78,WSW,255,25.0,33.0,100,0.00,,---,0.17,VWS V14.00,2013-01-31 12:23:00,
2013-01-31 07:28:00,51.5,51.5,29.77,WSW,250,23.0,33.0,100,0.00,,---,0.17,VWS V14.00,2013-01-31 12:28:00,
2013-01-31 07:33:00,51.5,51.5,29.77,WSW,256,11.0,29.0,100,0.00,,---,0.17,VWS V14.00,2013-01-31 12:33:00,
2013-01-31 07:38:00,51.4,51.4,29.78,WSW,255,17.0,29.0,100,0.00,,---,0.17,VWS V14.00,2013-01-31 12:38:00,
2013-01-31 07:43:00,51.4,51.4,29.78,West,260,23.0,31.0,100,0.00,,---,0.17,VWS V14.00,2013-01-31 12:43:00,
2013-01-31 07:48:00,51.4,51.4,29.78,WSW,255,25.0,31.0,100,0.00,,---,0.17,VWS V14.00,2013-01-31 12:48:00,
2013-01-31 07:53:00,51.4,51.4,29.78,West,262,24.0,31.0,100,0.00,,---,0.17,VWS V14.00,2013-01-31 12:53:00,
2013-01-31 07:58:00,51.4,51.4,29.79,West,265,17.0,31.0,100,0.00,,---,0.17,VWS V14.00,2013-01-31 12:58:00,
2013-01-31 08:03:00,51.4,51.4,29.80,WSW,258,25.0,29.0,100,0.00,,---,0.17,VWS V14.00,2013-01-31 13:03:00,
2013-01-31 08:08:00,51.4,51.4,29.80,West,260,13.0,30.0,100,0.00,,---,0.17,VWS V14.00,2013-01-31 13:08:00,
2013-01-31 08:13:00,51.4,51.4,29.80,West,265,21.0,30.0,100,0.00,,---,0.17,VWS V14.00,2013-01-31 13:13:00,
2013-01-31 08:18:00,51.4,51.4,29.80,West,261,21.0,30.0,100,0.00,,---,0.17,VWS V14.00,2013-01-31 13:18:00,
2013-01-31 08:23:00,51.4,50.9,29.81,West,277,25.0,32.0,98,0.00,,---,0.17,VWS V14.00,2013-01-31 13:23:00,
2013-01-31 08:28:00,51.2,50.1,29.81,West,281,30.0,33.0,96,0.00,,---,0.17,VWS V14.00,2013-01-31 13:28:00,
2013-01-31 08:33:00,51.0,49.3,29.82,West,274,21.0,33.0,94,0.00,,---,0.17,VWS V14.00,2013-01-31 13:33:00,
2013-01-31 08:38:00,50.8,48.6,29.82,West,268,22.0,33.0,92,0.00,,---,0.17,VWS V14.00,2013-01-31 13:38:00,
2013-01-31 08:43:00,50.6,47.8,29.83,West,272,21.0,33.0,90,0.00,,---,0.17,VWS V14.00,2013-01-31 13:43:00,
2013-01-31 08:48:00,50.4,47.3,29.82,West,269,24.0,33.0,89,0.00,,---,0.17,VWS V14.00,2013-01-31 13:48:00,
2013-01-31 08:53:00,50.2,46.8,29.82,West,271,23.0,33.0,88,0.00,,---,0.17,VWS V14.00,2013-01-31 13:53:00,
2013-01-31 08:58:00,50.1,46.7,29.83,West,278,22.0,37.0,88,0.00,,---,0.17,VWS V14.00,2013-01-31 13:58:00,
2013-01-31 09:03:00,50.1,46.4,29.83,West,264,24.0,34.0,87,0.00,,---,0.17,VWS V14.00,2013-01-31 14:03:00,
2013-01-31 09:08:00,50.0,46.6,29.83,West,269,31.0,34.0,88,0.00,,---,0.17,VWS V14.00,2013-01-31 14:08:00,
2013-01-31 09:13:00,49.8,45.5,29.83,West,266,24.0,34.0,85,0.00,,---,0.17,VWS V14.00,2013-01-31 14:13:00,
2013-01-31 09:18:00,49.7,46.3,29.83,West,264,24.0,34.0,88,0.00,,---,0.17,VWS V14.00,2013-01-31 14:18:00,
2013-01-31 09:23:00,49.7,46.0,29.83,West,278,22.0,34.0,87,0.00,,---,0.17,VWS V14.00,2013-01-31 14:23:00,
2013-01-31 09:28:00,49.6,45.9,29.84,West,273,19.0,34.0,87,0.00,,---,0.17,VWS V14.00,2013-01-31 14:28:00,
2013-01-31 09:33:00,49.7,46.0,29.84,West,270,22.0,31.0,87,0.00,,---,0.17,VWS V14.00,2013-01-31 14:33:00,
2013-01-31 09:38:00,49.7,45.7,29.84,West,270,21.0,31.0,86,0.00,,---,0.17,VWS V14.00,2013-01-31 14:38:00,
2013-01-31 09:43:00,49.7,46.0,29.85,West,266,22.0,32.0,87,0.00,,---,0.17,VWS V14.00,2013-01-31 14:43:00,
2013-01-31 09:48:00,49.7,46.0,29.86,West,267,18.0,32.0,87,0.00,,---,0.17,VWS V14.00,2013-01-31 14:48:00,
2013-01-31 09:53:00,49.7,46.0,29.86,West,276,19.0,32.0,87,0.00,,---,0.17,VWS V14.00,2013-01-31 14:53:00,
2013-01-31 09:58:00,49.8,45.5,29.86,West,271,28.0,32.0,85,0.00,,---,0.17,VWS V14.00,2013-01-31 14:58:00,
2013-01-31 10:03:00,49.8,45.8,29.86,West,276,25.0,28.0,86,0.00,,---,0.17,VWS V14.00,2013-01-31 15:03:00,
2013-01-31 10:08:00,49.8,45.5,29.87,West,269,18.0,34.0,85,0.00,,---,0.17,VWS V14.00,2013-01-31 15:08:00,
2013-01-31 10:13:00,49.8,45.5,29.87,West,272,26.0,34.0,85,0.00,,---,0.17,VWS V14.00,2013-01-31 15:13:00,
2013-01-31 10:18:00,49.8,45.2,29.87,West,280,26.0,34.0,84,0.00,,---,0.17,VWS V14.00,2013-01-31 15:18:00,
2013-01-31 10:23:00,49.8,45.5,29.87,West,277,26.0,34.0,85,0.00,,---,0.17,VWS V14.00,2013-01-31 15:23:00,
2013-01-31 10:28:00,49.7,45.4,29.88,WNW,282,24.0,34.0,85,0.00,,---,0.17,VWS V14.00,2013-01-31 15:28:00,
2013-01-31 10:33:00,49.7,46.3,29.88,West,275,27.0,29.0,88,0.00,,---,0.17,VWS V14.00,2013-01-31 15:33:00,
2013-01-31 10:38:00,49.7,45.4,29.88,West,280,16.0,33.0,85,0.00,,---,0.17,VWS V14.00,2013-01-31 15:38:00,
2013-01-31 10:43:00,49.8,45.8,29.88,West,278,21.0,33.0,86,0.00,,---,0.17,VWS V14.00,2013-01-31 15:43:00,
2013-01-31 10:48:00,49.9,45.3,29.88,West,276,24.0,33.0,84,0.00,,---,0.17,VWS V14.00,2013-01-31 15:48:00,
2013-01-31 10:53:00,49.9,45.6,29.88,West,277,23.0,33.0,85,0.00,,---,0.17,VWS V14.00,2013-01-31 15:53:00,
2013-01-31 10:58:00,49.9,45.3,29.88,WNW,286,22.0,33.0,84,0.00,,---,0.17,VWS V14.00,2013-01-31 15:58:00,
2013-01-31 11:03:00,50.0,46.0,29.88,West,273,19.0,26.0,86,0.00,,---,0.17,VWS V14.00,2013-01-31 16:03:00,
2013-01-31 11:08:00,50.0,45.0,29.88,West,272,17.0,26.0,83,0.00,,---,0.17,VWS V14.00,2013-01-31 16:08:00,
2013-01-31 11:13:00,50.1,45.5,29.88,West,280,22.0,26.0,84,0.00,,---,0.17,VWS V14.00,2013-01-31 16:13:00,
2013-01-31 11:18:00,50.1,45.2,29.88,West,278,16.0,26.0,83,0.00,,---,0.17,VWS V14.00,2013-01-31 16:18:00,
2013-01-31 11:23:00,50.2,44.6,29.88,West,268,19.0,26.0,81,0.00,,---,0.17,VWS V14.00,2013-01-31 16:23:00,
2013-01-31 11:28:00,50.2,44.3,29.89,West,280,28.0,28.0,80,0.00,,---,0.17,VWS V14.00,2013-01-31 16:28:00,
2013-01-31 11:33:00,50.2,44.9,29.88,West,272,12.0,24.0,82,0.00,,---,0.17,VWS V14.00,2013-01-31 16:33:00,
2013-01-31 11:38:00,50.3,44.7,29.88,West,269,14.0,24.0,81,0.00,,---,0.17,VWS V14.00,2013-01-31 16:38:00,
2013-01-31 11:43:00,50.4,44.8,29.88,West,277,17.0,24.0,81,0.00,,---,0.17,VWS V14.00,2013-01-31 16:43:00,
2013-01-31 11:48:00,50.5,44.6,29.89,West,274,20.0,24.0,80,0.00,,---,0.17,VWS V14.00,2013-01-31 16:48:00,
2013-01-31 11:53:00,50.5,43.9,29.89,West,275,16.0,24.0,78,0.00,,---,0.17,VWS V14.00,2013-01-31 16:53:00,
2013-01-31 11:58:00,50.5,44.2,29.88,West,271,17.0,24.0,79,0.00,,---,0.17,VWS V14.00,2013-01-31 16:58:00,
2013-01-31 12:03:00,50.6,43.3,29.89,West,273,18.0,26.0,76,0.00,,---,0.17,VWS V14.00,2013-01-31 17:03:00,
2013-01-31 12:08:00,50.6,44.0,29.89,West,275,17.0,26.0,78,0.00,,---,0.17,VWS V14.00,2013-01-31 17:08:00,
2013-01-31 12:13:00,50.8,44.2,29.89,West,271,15.0,27.0,78,0.00,,---,0.17,VWS V14.00,2013-01-31 17:13:00,
2013-01-31 12:18:00,50.9,44.3,29.89,West,266,20.0,27.0,78,0.00,,---,0.17,VWS V14.00,2013-01-31 17:18:00,
2013-01-31 12:23:00,50.9,43.3,29.88,West,267,15.0,27.0,75,0.00,,---,0.17,VWS V14.00,2013-01-31 17:23:00,
2013-01-31 12:28:00,51.0,44.0,29.88,West,277,21.0,27.0,77,0.00,,---,0.17,VWS V14.00,2013-01-31 17:28:00,
2013-01-31 12:33:00,51.1,44.2,29.87,West,275,17.0,19.0,77,0.00,,---,0.17,VWS V14.00,2013-01-31 17:33:00,
2013-01-31 12:38:00,51.2,44.2,29.87,West,281,21.0,22.0,77,0.00,,---,0.17,VWS V14.00,2013-01-31 17:38:00,
2013-01-31 12:43:00,51.3,44.0,29.87,West,277,21.0,23.0,76,0.00,,---,0.17,VWS V14.00,2013-01-31 17:43:00,
2013-01-31 12:48:00,51.4,43.4,29.87,West,277,17.0,23.0,74,0.00,,---,0.17,VWS V14.00,2013-01-31 17:48:00,
2013-01-31 12:53:00,51.5,43.5,29.87,West,274,20.0,23.0,74,0.00,,---,0.17,VWS V14.00,2013-01-31 17:53:00,
2013-01-31 12:58:00,51.6,43.2,29.88,West,264,13.0,23.0,73,0.00,,---,0.17,VWS V14.00,2013-01-31 17:58:00,
2013-01-31 13:03:00,51.8,43.4,29.88,West,263,12.0,21.0,73,0.00,,---,0.17,VWS V14.00,2013-01-31 18:03:00,
2013-01-31 13:08:00,51.9,43.9,29.88,WNW,285,19.0,22.0,74,0.00,,---,0.17,VWS V14.00,2013-01-31 18:08:00,
2013-01-31 13:12:00,52.0,43.6,29.88,West,280,18.0,24.0,73,0.00,,---,0.17,VWS V14.00,2013-01-31 18:12:00,
2013-01-31 13:17:00,52.1,43.0,29.88,West,275,21.0,24.0,71,0.00,,---,0.17,VWS V14.00,2013-01-31 18:17:00,
2013-01-31 13:22:00,52.2,42.7,29.88,West,266,18.0,24.0,70,0.00,,---,0.17,VWS V14.00,2013-01-31 18:22:00,
2013-01-31 13:27:00,52.4,43.3,29.87,WSW,256,11.0,24.0,71,0.00,,---,0.17,VWS V14.00,2013-01-31 18:27:00,
2013-01-31 13:32:00,52.4,42.5,29.87,West,272,8.0,19.0,69,0.00,,---,0.17,VWS V14.00,2013-01-31 18:32:00,
2013-01-31 13:37:00,52.5,42.6,29.87,West,269,16.0,22.0,69,0.00,,---,0.17,VWS V14.00,2013-01-31 18:37:00,
2013-01-31 13:42:00,52.6,42.3,29.88,West,277,15.0,24.0,68,0.00,,---,0.17,VWS V14.00,2013-01-31 18:42:00,
2013-01-31 13:47:00,52.8,42.9,29.87,West,264,17.0,24.0,69,0.00,,---,0.17,VWS V14.00,2013-01-31 18:47:00,
2013-01-31 13:52:00,52.9,41.9,29.87,WSW,258,13.0,24.0,66,0.00,,---,0.17,VWS V14.00,2013-01-31 18:52:00,
2013-01-31 13:57:00,52.8,42.2,29.87,West,267,10.0,24.0,67,0.00,,---,0.17,VWS V14.00,2013-01-31 18:57:00,
2013-01-31 14:02:00,52.9,42.6,29.87,WSW,252,20.0,22.0,68,0.00,,---,0.17,VWS V14.00,2013-01-31 19:02:00,
2013-01-31 14:07:00,53.0,42.3,29.87,West,268,12.0,22.0,67,0.00,,---,0.17,VWS V14.00,2013-01-31 19:07:00,
2013-01-31 14:12:00,53.0,41.6,29.87,West,280,15.0,23.0,65,0.00,,---,0.17,VWS V14.00,2013-01-31 19:12:00,
2013-01-31 14:17:00,53.1,42.1,29.88,WSW,257,10.0,23.0,66,0.00,,---,0.17,VWS V14.00,2013-01-31 19:17:00,
2013-01-31 14:22:00,53.2,42.5,29.87,WSW,252,18.0,23.0,67,0.00,,---,0.17,VWS V14.00,2013-01-31 19:22:00,
2013-01-31 14:27:00,53.2,43.3,29.87,West,261,10.0,23.0,69,0.00,,---,0.17,VWS V14.00,2013-01-31 19:27:00,
2013-01-31 14:32:00,53.4,42.7,29.88,West,273,17.0,19.0,67,0.00,,---,0.17,VWS V14.00,2013-01-31 19:32:00,
2013-01-31 14:37:00,53.4,41.9,29.88,WSW,257,14.0,19.0,65,0.00,,---,0.17,VWS V14.00,2013-01-31 19:37:00,
2013-01-31 14:42:00,53.4,41.9,29.88,WSW,255,12.0,19.0,65,0.00,,---,0.17,VWS V14.00,2013-01-31 19:42:00,
2013-01-31 14:47:00,53.4,41.5,29.88,WSW,245,13.0,23.0,64,0.00,,---,0.17,VWS V14.00,2013-01-31 19:47:00,
2013-01-31 14:52:00,53.5,41.2,29.88,WSW,255,14.0,23.0,63,0.00,,---,0.17,VWS V14.00,2013-01-31 19:52:00,
2013-01-31 14:57:00,53.5,42.4,29.88,SW,230,20.0,23.0,66,0.00,,---,0.17,VWS V14.00,2013-01-31 19:57:00,
2013-01-31 15:02:00,53.6,42.5,29.88,WSW,252,15.0,17.0,66,0.00,,---,0.17,VWS V14.00,2013-01-31 20:02:00,
2013-01-31 15:07:00,53.7,41.4,29.88,WSW,252,14.0,22.0,63,0.00,,---,0.17,VWS V14.00,2013-01-31 20:07:00,
2013-01-31 15:12:00,53.6,41.7,29.88,WSW,243,12.0,22.0,64,0.00,,---,0.17,VWS V14.00,2013-01-31 20:12:00,
2013-01-31 15:17:00,53.5,42.8,29.88,WSW,250,16.0,22.0,67,0.00,,---,0.17,VWS V14.00,2013-01-31 20:17:00,
2013-01-31 15:22:00,53.5,42.0,29.89,WSW,241,14.0,22.0,65,0.00,,---,0.17,VWS V14.00,2013-01-31 20:22:00,
2013-01-31 15:27:00,53.4,41.5,29.89,WSW,248,13.0,22.0,64,0.00,,---,0.17,VWS V14.00,2013-01-31 20:27:00,
2013-01-31 15:32:00,53.4,41.1,29.89,WSW,245,17.0,21.0,63,0.00,,---,0.17,VWS V14.00,2013-01-31 20:32:00,
2013-01-31 15:37:00,53.3,41.0,29.90,WSW,248,12.0,21.0,63,0.00,,---,0.17,VWS V14.00,2013-01-31 20:37:00,
2013-01-31 15:42:00,53.4,41.1,29.90,WSW,252,11.0,22.0,63,0.00,,---,0.17,VWS V14.00,2013-01-31 20:42:00,
2013-01-31 15:47:00,53.4,41.1,29.90,WSW,252,15.0,22.0,63,0.00,,---,0.17,VWS V14.00,2013-01-31 20:47:00,
2013-01-31 15:52:00,53.3,38.0,29.91,West,261,19.0,22.0,56,0.00,,---,0.17,VWS V14.00,2013-01-31 20:52:00,
2013-01-31 15:57:00,53.2,36.5,29.91,West,266,17.0,22.0,53,0.00,,---,0.17,VWS V14.00,2013-01-31 20:57:00,
2013-01-31 16:02:00,53.1,36.9,29.91,West,259,13.0,21.0,54,0.00,,---,0.17,VWS V14.00,2013-01-31 21:02:00,
2013-01-31 16:07:00,53.1,36.9,29.91,West,264,11.0,21.0,54,0.00,,---,0.17,VWS V14.00,2013-01-31 21:07:00,
2013-01-31 16:12:00,53.1,37.4,29.91,West,266,12.0,21.0,55,0.00,,---,0.17,VWS V14.00,2013-01-31 21:12:00,
2013-01-31 16:17:00,53.0,37.7,29.91,West,277,19.0,21.0,56,0.00,,---,0.17,VWS V14.00,2013-01-31 21:17:00,
2013-01-31 16:22:00,53.0,37.7,29.92,West,270,11.0,21.0,56,0.00,,---,0.17,VWS V14.00,2013-01-31 21:22:00,
2013-01-31 16:27:00,53.0,35.9,29.92,West,273,17.0,21.0,52,0.00,,---,0.17,VWS V14.00,2013-01-31 21:27:00,
2013-01-31 16:32:00,52.9,38.5,29.92,West,278,13.0,20.0,58,0.00,,---,0.17,VWS V14.00,2013-01-31 21:32:00,
2013-01-31 16:37:00,52.9,38.5,29.92,West,270,14.0,20.0,58,0.00,,---,0.17,VWS V14.00,2013-01-31 21:37:00,
2013-01-31 16:42:00,52.8,37.5,29.93,West,275,16.0,20.0,56,0.00,,---,0.17,VWS V14.00,2013-01-31 21:42:00,
2013-01-31 16:47:00,52.7,36.5,29.93,West,268,10.0,20.0,54,0.00,,---,0.17,VWS V14.00,2013-01-31 21:47:00,
2013-01-31 16:52:00,52.6,38.3,29.93,WNW,284,21.0,23.0,58,0.00,,---,0.17,VWS V14.00,2013-01-31 21:52:00,
2013-01-31 16:57:00,52.6,37.8,29.93,West,263,9.0,23.0,57,0.00,,---,0.17,VWS V14.00,2013-01-31 21:57:00,
2013-01-31 17:02:00,52.4,36.3,29.94,West,276,14.0,23.0,54,0.00,,---,0.17,VWS V14.00,2013-01-31 22:02:00,
2013-01-31 17:07:00,52.3,37.1,29.94,West,271,14.0,23.0,56,0.00,,---,0.17,VWS V14.00,2013-01-31 22:07:00,
2013-01-31 17:12:00,52.2,36.1,29.94,West,273,19.0,23.0,54,0.00,,---,0.17,VWS V14.00,2013-01-31 22:12:00,
2013-01-31 17:17:00,52.0,35.9,29.95,West,267,10.0,23.0,54,0.00,,---,0.17,VWS V14.00,2013-01-31 22:17:00,
2013-01-31 17:22:00,51.9,35.3,29.95,West,271,16.0,23.0,53,0.00,,---,0.17,VWS V14.00,2013-01-31 22:22:00,
2013-01-31 17:27:00,51.7,36.1,29.95,West,270,15.0,23.0,55,0.00,,---,0.17,VWS V14.00,2013-01-31 22:27:00,
2013-01-31 17:32:00,51.5,36.3,29.96,West,270,15.0,20.0,56,0.00,,---,0.17,VWS V14.00,2013-01-31 22:32:00,
2013-01-31 17:37:00,51.4,36.7,29.97,West,275,13.0,24.0,57,0.00,,---,0.17,VWS V14.00,2013-01-31 22:37:00,
2013-01-31 17:42:00,51.3,36.6,29.97,West,276,16.0,24.0,57,0.00,,---,0.17,VWS V14.00,2013-01-31 22:42:00,
2013-01-31 17:47:00,51.2,37.4,29.97,WNW,288,12.0,24.0,59,0.00,,---,0.17,VWS V14.00,2013-01-31 22:47:00,
2013-01-31 17:52:00,51.1,38.5,29.98,WNW,293,14.0,24.0,62,0.00,,---,0.17,VWS V14.00,2013-01-31 22:52:00,
2013-01-31 17:57:00,51.0,38.5,29.98,WNW,294,16.0,24.0,62,0.00,,---,0.17,VWS V14.00,2013-01-31 22:57:00,
2013-01-31 18:02:00,50.9,38.4,29.98,WNW,291,13.0,16.0,62,0.00,,---,0.17,VWS V14.00,2013-01-31 23:02:00,
2013-01-31 18:07:00,50.7,38.2,29.99,WNW,290,10.0,17.0,62,0.00,,---,0.17,VWS V14.00,2013-01-31 23:07:00,
2013-01-31 18:12:00,50.6,38.5,29.99,WNW,287,11.0,17.0,63,0.00,,---,0.17,VWS V14.00,2013-01-31 23:12:00,
2013-01-31 18:17:00,50.6,38.5,29.99,WNW,293,13.0,17.0,63,0.00,,---,0.17,VWS V14.00,2013-01-31 23:17:00,
2013-01-31 18:22:00,50.4,38.3,30.00,WNW,286,12.0,18.0,63,0.00,,---,0.17,VWS V14.00,2013-01-31 23:22:00,
2013-01-31 18:27:00,50.3,37.4,30.00,WNW,287,13.0,18.0,61,0.00,,---,0.17,VWS V14.00,2013-01-31 23:27:00,
2013-01-31 18:32:00,50.3,37.8,30.01,West,281,16.0,18.0,62,0.00,,---,0.17,VWS V14.00,2013-01-31 23:32:00,
2013-01-31 18:37:00,50.2,37.7,30.01,West,280,13.0,18.0,62,0.00,,---,0.17,VWS V14.00,2013-01-31 23:37:00,
2013-01-31 18:42:00,50.1,36.8,30.01,West,280,14.0,21.0,60,0.00,,---,0.17,VWS V14.00,2013-01-31 23:42:00,
2013-01-31 18:47:00,50.0,36.7,30.01,West,273,12.0,21.0,60,0.00,,---,0.17,VWS V14.00,2013-01-31 23:47:00,
2013-01-31 18:52:00,49.9,36.2,30.02,West,274,13.0,21.0,59,0.00,,---,0.17,VWS V14.00,2013-01-31 23:52:00,
2013-01-31 18:57:00,49.9,37.0,30.02,West,280,13.0,21.0,61,0.00,,---,0.17,VWS V14.00,2013-01-31 23:57:00,
2013-01-31 19:02:00,49.8,37.3,30.03,West,277,11.0,18.0,62,0.00,,---,0.17,VWS V14.00,2013-02-01 00:02:00,
2013-01-31 19:07:00,49.8,37.7,30.03,WNW,285,13.0,20.0,63,0.00,,---,0.17,VWS V14.00,2013-02-01 00:07:00,
2013-01-31 19:12:00,49.8,37.7,30.03,WNW,286,13.0,20.0,63,0.00,,---,0.17,VWS V14.00,2013-02-01 00:12:00,
2013-01-31 19:17:00,49.8,38.1,30.04,WNW,284,14.0,20.0,64,0.00,,---,0.17,VWS V14.00,2013-02-01 00:17:00,
2013-01-31 19:22:00,49.7,36.8,30.04,WNW,282,14.0,20.0,61,0.00,,---,0.17,VWS V14.00,2013-02-01 00:22:00,
2013-01-31 19:27:00,49.7,37.2,30.04,WNW,284,14.0,21.0,62,0.00,,---,0.17,VWS V14.00,2013-02-01 00:27:00,
2013-01-31 19:32:00,49.7,37.2,30.05,WNW,282,12.0,20.0,62,0.00,,---,0.17,VWS V14.00,2013-02-01 00:32:00,
2013-01-31 19:37:00,49.6,37.9,30.05,WNW,290,16.0,20.0,64,0.00,,---,0.17,VWS V14.00,2013-02-01 00:37:00,
2013-01-31 19:42:00,49.5,37.0,30.05,WNW,285,14.0,20.0,62,0.00,,---,0.17,VWS V14.00,2013-02-01 00:42:00,
2013-01-31 19:47:00,49.5,37.4,30.05,WNW,284,13.0,20.0,63,0.00,,---,0.17,VWS V14.00,2013-02-01 00:47:00,
2013-01-31 19:52:00,49.4,37.3,30.05,WNW,287,13.0,20.0,63,0.00,,---,0.17,VWS V14.00,2013-02-01 00:52:00,
2013-01-31 19:57:00,49.4,36.9,30.05,West,281,17.0,20.0,62,0.00,,---,0.17,VWS V14.00,2013-02-01 00:57:00,
2013-01-31 20:02:00,49.3,37.2,30.06,WNW,284,12.0,16.0,63,0.00,,---,0.17,VWS V14.00,2013-02-01 01:02:00,
2013-01-31 20:07:00,49.3,38.0,30.06,WNW,292,12.0,17.0,65,0.00,,---,0.17,VWS V14.00,2013-02-01 01:07:00,
2013-01-31 20:12:00,49.3,38.0,30.06,WNW,289,14.0,17.0,65,0.00,,---,0.17,VWS V14.00,2013-02-01 01:12:00,
2013-01-31 20:17:00,49.2,38.0,30.06,WNW,285,13.0,17.0,65,0.00,,---,0.17,VWS V14.00,2013-02-01 01:17:00,
2013-01-31 20:22:00,49.2,37.2,30.07,WNW,290,12.0,17.0,63,0.00,,---,0.17,VWS V14.00,2013-02-01 01:22:00,
2013-01-31 20:27:00,49.1,37.1,30.07,WNW,290,10.0,17.0,63,0.00,,---,0.17,VWS V14.00,2013-02-01 01:27:00,
2013-01-31 20:32:00,49.0,37.0,30.07,WNW,287,15.0,16.0,63,0.00,,---,0.17,VWS V14.00,2013-02-01 01:32:00,
2013-01-31 20:37:00,49.0,37.0,30.06,WNW,291,11.0,16.0,63,0.00,,---,0.17,VWS V14.00,2013-02-01 01:37:00,
2013-01-31 20:42:00,48.9,37.3,30.07,WNW,290,13.0,16.0,64,0.00,,---,0.17,VWS V14.00,2013-02-01 01:42:00,
2013-01-31 20:47:00,48.8,37.2,30.07,WNW,286,10.0,16.0,64,0.00,,---,0.17,VWS V14.00,2013-02-01 01:47:00,
2013-01-31 20:52:00,48.7,37.1,30.06,WNW,289,10.0,16.0,64,0.00,,---,0.17,VWS V14.00,2013-02-01 01:52:00,
2013-01-31 20:57:00,48.7,36.7,30.06,WNW,283,11.0,16.0,63,0.00,,---,0.17,VWS V14.00,2013-02-01 01:57:00,
2013-01-31 21:02:00,48.6,37.0,30.06,WNW,285,10.0,14.0,64,0.00,,---,0.17,VWS V14.00,2013-02-01 02:02:00,
2013-01-31 21:07:00,48.6,37.0,30.07,West,279,11.0,15.0,64,0.00,,---,0.17,VWS V14.00,2013-02-01 02:07:00,
2013-01-31 21:12:00,48.6,37.4,30.07,WNW,287,12.0,17.0,65,0.00,,---,0.17,VWS V14.00,2013-02-01 02:12:00,
2013-01-31 21:17:00,48.5,36.5,30.08,West,281,16.0,17.0,63,0.00,,---,0.17,VWS V14.00,2013-02-01 02:17:00,
2013-01-31 21:22:00,48.5,36.9,30.08,WNW,288,18.0,19.0,64,0.00,,---,0.17,VWS V14.00,2013-02-01 02:22:00,
2013-01-31 21:27:00,48.6,37.0,30.08,WNW,283,15.0,21.0,64,0.00,,---,0.17,VWS V14.00,2013-02-01 02:27:00,
2013-01-31 21:32:00,48.6,37.4,30.08,West,279,19.0,19.0,65,0.00,,---,0.17,VWS V14.00,2013-02-01 02:32:00,
2013-01-31 21:37:00,48.6,37.4,30.08,WNW,285,18.0,19.0,65,0.00,,---,0.17,VWS V14.00,2013-02-01 02:37:00,
2013-01-31 21:42:00,48.5,37.3,30.09,WNW,286,16.0,22.0,65,0.00,,---,0.17,VWS V14.00,2013-02-01 02:42:00,
2013-01-31 21:47:00,48.5,36.5,30.09,WNW,285,12.0,22.0,63,0.00,,---,0.17,VWS V14.00,2013-02-01 02:47:00,
2013-01-31 21:52:00,48.4,36.4,30.09,WNW,283,14.0,22.0,63,0.00,,---,0.17,VWS V14.00,2013-02-01 02:52:00,
2013-01-31 21:57:00,48.3,36.3,30.09,WNW,293,14.0,22.0,63,0.00,,---,0.17,VWS V14.00,2013-02-01 02:57:00,
2013-01-31 22:02:00,48.3,36.3,30.09,WNW,282,13.0,18.0,63,0.00,,---,0.17,VWS V14.00,2013-02-01 03:02:00,
2013-01-31 22:07:00,48.2,35.8,30.09,WNW,286,14.0,20.0,62,0.00,,---,0.17,VWS V14.00,2013-02-01 03:07:00,
2013-01-31 22:12:00,48.2,36.6,30.10,WNW,285,12.0,20.0,64,0.00,,---,0.17,VWS V14.00,2013-02-01 03:12:00,
2013-01-31 22:17:00,48.1,36.5,30.10,WNW,284,12.0,20.0,64,0.00,,---,0.17,VWS V14.00,2013-02-01 03:17:00,
2013-01-31 22:22:00,48.0,36.4,30.10,WNW,292,13.0,20.0,64,0.00,,---,0.17,VWS V14.00,2013-02-01 03:22:00,
2013-01-31 22:27:00,47.9,36.3,30.10,WNW,288,16.0,20.0,64,0.00,,---,0.17,VWS V14.00,2013-02-01 03:27:00,
2013-01-31 22:32:00,47.9,35.9,30.10,WNW,283,17.0,19.0,63,0.00,,---,0.17,VWS V14.00,2013-02-01 03:32:00,
2013-01-31 22:37:00,47.8,36.2,30.10,West,280,12.0,19.0,64,0.00,,---,0.17,VWS V14.00,2013-02-01 03:37:00,
2013-01-31 22:42:00,47.8,36.2,30.10,West,276,11.0,20.0,64,0.00,,---,0.17,VWS V14.00,2013-02-01 03:42:00,
2013-01-31 22:47:00,47.7,36.1,30.10,West,277,15.0,20.0,64,0.00,,---,0.17,VWS V14.00,2013-02-01 03:47:00,
2013-01-31 22:52:00,47.8,36.2,30.11,WNW,285,14.0,20.0,64,0.00,,---,0.17,VWS V14.00,2013-02-01 03:52:00,
2013-01-31 22:57:00,47.7,36.1,30.11,West,277,13.0,20.0,64,0.00,,---,0.17,VWS V14.00,2013-02-01 03:57:00,
2013-01-31 23:02:00,47.8,36.6,30.11,West,280,10.0,16.0,65,0.00,,---,0.17,VWS V14.00,2013-02-01 04:02:00,
2013-01-31 23:07:00,47.7,36.1,30.11,West,273,11.0,17.0,64,0.00,,---,0.17,VWS V14.00,2013-02-01 04:07:00,
2013-01-31 23:12:00,47.7,36.1,30.11,West,272,10.0,17.0,64,0.00,,---,0.17,VWS V14.00,2013-02-01 04:12:00,
2013-01-31 23:17:00,47.6,36.4,30.11,West,273,10.0,17.0,65,0.00,,---,0.17,VWS V14.00,2013-02-01 04:17:00,
2013-01-31 23:22:00,47.6,36.8,30.11,West,281,15.0,17.0,66,0.00,,---,0.17,VWS V14.00,2013-02-01 04:22:00,
2013-01-31 23:27:00,47.5,36.7,30.11,West,280,15.0,18.0,66,0.00,,---,0.17,VWS V14.00,2013-02-01 04:27:00,
2013-01-31 23:32:00,47.5,36.7,30.11,West,276,13.0,13.0,66,0.00,,---,0.17,VWS V14.00,2013-02-01 04:32:00,
2013-01-31 23:37:00,47.4,36.2,30.12,West,274,11.0,17.0,65,0.00,,---,0.17,VWS V14.00,2013-02-01 04:37:00,
2013-01-31 23:42:00,47.4,36.6,30.12,West,268,8.0,17.0,66,0.00,,---,0.17,VWS V14.00,2013-02-01 04:42:00,
2013-01-31 23:47:00,47.4,36.2,30.12,West,265,10.0,17.0,65,0.00,,---,0.17,VWS V14.00,2013-02-01 04:47:00,
2013-01-31 23:52:00,47.3,36.2,30.12,West,267,11.0,17.0,65,0.00,,---,0.17,VWS V14.00,2013-02-01 04:52:00,
2013-01-31 23:57:00,47.2,35.7,30.12,West,271,8.0,17.0,64,0.00,,---,0.17,VWS V14.00,2013-02-01 04:57:00,